createdAt,value
2022-08-03T00:00:49.235Z,60.03
2022-08-03T00:06:03.922Z,59.89
2022-08-03T00:11:07.074Z,60.01
2022-08-03T00:16:10.246Z,59.89
2022-08-03T00:21:12.229Z,59.51
2022-08-03T00:26:13.881Z,59.94
2022-08-03T00:31:15.637Z,59.63
2022-08-03T00:36:17.236Z,59.68
2022-08-03T00:41:18.809Z,59.55
2022-08-03T00:46:22.363Z,59.64
2022-08-03T00:51:24.133Z,60.39
2022-08-03T00:56:26.147Z,61.36
2022-08-03T01:01:29.156Z,62.13
2022-08-03T01:06:44.316Z,62.14
2022-08-03T01:12:44.294Z,62.42
2022-08-03T01:18:00.699Z,62.26
2022-08-03T01:23:31.107Z,62.22
2022-08-03T01:28:38.210Z,62.55
2022-08-03T01:33:47.107Z,63.34
2022-08-03T01:38:52.498Z,63.51
2022-08-03T01:44:30.134Z,63.16
2022-08-03T01:49:17.591Z,63.50
2022-08-03T01:54:19.811Z,64.32
2022-08-03T01:59:22.208Z,64.32
2022-08-03T02:04:24.507Z,63.88
2022-08-03T02:09:27.921Z,63.64
2022-08-03T02:14:30.130Z,64.47
2022-08-03T02:19:35.779Z,64.53
2022-08-03T02:24:37.649Z,64.22
2022-08-03T02:29:40.958Z,64.44
2022-08-03T02:34:46.705Z,64.44
2022-08-03T02:39:49.297Z,64.56
2022-08-03T02:44:53.303Z,65.21
2022-08-03T02:49:56.847Z,65.17
2022-08-03T02:55:00.495Z,65.86
2022-08-03T03:00:02.286Z,65.71
2022-08-03T03:05:56.336Z,66.50
2022-08-03T03:10:26.208Z,66.38
2022-08-03T03:15:28.457Z,67.05
2022-08-03T03:20:30.674Z,66.54
2022-08-03T03:25:33.217Z,66.19
2022-08-03T03:30:34.804Z,66.15
2022-08-03T03:35:38.863Z,66.38
2022-08-03T03:40:41.213Z,67.05
2022-08-03T03:45:43.303Z,67.37
2022-08-03T03:50:44.915Z,67.62
2022-08-03T03:56:01.601Z,67.35
2022-08-03T04:01:04.670Z,68.26
2022-08-03T04:06:24.842Z,67.31
2022-08-03T04:11:31.798Z,67.88
2022-08-03T04:16:43.173Z,68.45
2022-08-03T04:21:48.652Z,67.20
2022-08-03T04:26:52.738Z,67.49
2022-08-03T04:31:54.935Z,67.72
2022-08-03T04:36:59.648Z,66.73
2022-08-03T04:42:08.493Z,67.33
2022-08-03T04:47:10.639Z,66.92
2022-08-03T04:52:12.321Z,65.31
2022-08-03T04:57:22.152Z,65.31
2022-08-03T05:02:24.921Z,64.50
2022-08-03T05:07:26.547Z,63.77
2022-08-03T05:12:37.712Z,62.69
2022-08-03T05:17:39.332Z,62.26
2022-08-03T05:22:40.927Z,61.00
2022-08-03T05:27:42.538Z,61.15
2022-08-03T05:32:44.087Z,60.82
2022-08-03T05:37:54.759Z,60.32
2022-08-03T05:42:57.008Z,59.10
2022-08-03T05:47:59.613Z,58.29
2022-08-03T05:53:01.154Z,57.70
2022-08-03T05:58:03.859Z,56.74
2022-08-03T06:03:05.570Z,56.17
2022-08-03T06:08:07.184Z,55.93
2022-08-03T06:13:08.714Z,54.69
2022-08-03T06:18:10.348Z,54.65
2022-08-03T06:23:16.249Z,54.14
2022-08-03T06:28:51.643Z,53.97
2022-08-03T06:34:31.589Z,53.29
2022-08-03T06:39:03.759Z,52.63
2022-08-03T06:44:05.744Z,51.59
2022-08-03T06:49:08.011Z,51.51
2022-08-03T06:54:09.834Z,51.70
2022-08-03T07:00:08.338Z,51.28
2022-08-03T07:04:33.392Z,50.57
2022-08-03T07:09:34.964Z,50.46
2022-08-03T07:14:36.548Z,49.75
2022-08-03T07:19:38.272Z,49.84
2022-08-03T07:24:39.811Z,50.07
2022-08-03T07:29:41.342Z,49.32
2022-08-03T07:34:42.877Z,49.11
2022-08-03T07:39:44.835Z,49.20
2022-08-03T07:44:46.374Z,49.45
2022-08-03T07:49:48.019Z,49.31
2022-08-03T07:54:49.542Z,49.24
2022-08-03T07:59:57.171Z,48.94
2022-08-03T08:05:13.680Z,49.41
2022-08-03T08:10:15.240Z,49.43
2022-08-03T08:15:16.975Z,49.11
2022-08-03T08:20:30.415Z,48.72
2022-08-03T08:25:33.413Z,48.20
2022-08-03T08:30:35.131Z,47.68
2022-08-03T08:35:37.231Z,47.53
2022-08-03T08:40:38.866Z,46.89
2022-08-03T08:45:41.404Z,47.34
2022-08-03T08:50:43.172Z,47.18
2022-08-03T08:55:59.365Z,47.45
2022-08-03T09:01:02.002Z,47.50
2022-08-03T09:06:04.277Z,47.21
2022-08-03T09:11:05.913Z,46.48
2022-08-03T09:16:17.291Z,46.96
2022-08-03T09:21:35.491Z,46.24
2022-08-03T09:26:37.949Z,46.48
2022-08-03T09:31:43.672Z,45.85
2022-08-03T09:36:50.805Z,45.98
2022-08-03T09:42:07.457Z,45.21
2022-08-03T09:47:12.314Z,44.30
2022-08-03T09:52:37.967Z,44.91
2022-08-03T09:57:41.620Z,43.94
2022-08-03T10:02:46.199Z,43.75
2022-08-03T10:07:49.966Z,43.86
2022-08-03T10:12:51.779Z,43.78
2022-08-03T10:17:53.375Z,44.06
2022-08-03T10:22:55.210Z,43.30
2022-08-03T10:27:57.993Z,42.47
2022-08-03T10:33:03.519Z,42.32
2022-08-03T10:38:10.598Z,41.48
2022-08-03T10:43:19.028Z,41.95
2022-08-03T10:48:20.833Z,42.61
2022-08-03T10:53:36.481Z,41.45
2022-08-03T10:58:53.218Z,41.57
2022-08-03T11:03:58.837Z,41.47
2022-08-03T11:09:09.659Z,41.50
2022-08-03T11:14:16.796Z,41.19
2022-08-03T11:19:24.100Z,41.50
2022-08-03T11:24:41.077Z,41.36
2022-08-03T11:30:19.266Z,42.00
2022-08-03T11:35:32.171Z,41.03
2022-08-03T11:40:36.581Z,40.36
2022-08-03T11:45:38.550Z,39.55
2022-08-03T11:50:40.379Z,39.28
2022-08-03T11:55:44.364Z,39.56
2022-08-03T12:00:45.971Z,38.80
2022-08-03T12:05:51.909Z,38.73
2022-08-03T12:10:55.538Z,38.83
2022-08-03T12:15:59.063Z,38.97
2022-08-03T12:21:10.204Z,39.02
2022-08-03T12:26:11.909Z,38.90
2022-08-03T12:31:13.667Z,38.28
2022-08-03T12:36:15.338Z,38.72
2022-08-03T12:41:27.849Z,38.48
2022-08-03T12:46:34.925Z,38.47
2022-08-03T12:51:42.348Z,38.19
2022-08-03T12:57:02.810Z,37.11
2022-08-03T13:02:09.339Z,37.48
2022-08-03T13:07:17.987Z,36.66
2022-08-03T13:12:23.193Z,37.25
2022-08-03T13:17:25.549Z,37.47
2022-08-03T13:22:30.470Z,37.25
2022-08-03T13:28:04.293Z,37.22
2022-08-03T13:32:53.790Z,36.93
2022-08-03T13:37:55.386Z,35.11
2022-08-03T13:42:57.029Z,35.36
2022-08-03T13:47:58.632Z,34.53
2022-08-03T13:53:00.241Z,36.47
2022-08-03T13:58:07.248Z,34.70
2022-08-03T14:03:14.221Z,34.26
2022-08-03T14:08:16.352Z,33.98
2022-08-03T14:13:18.382Z,34.05
2022-08-03T14:18:28.805Z,35.27
2022-08-03T14:23:37.424Z,34.47
2022-08-03T14:28:39.015Z,34.16
2022-08-03T14:33:40.728Z,33.75
2022-08-03T14:38:42.310Z,32.36
2022-08-03T14:44:00.468Z,33.72
2022-08-03T14:50:30.829Z,33.21
2022-08-03T14:54:26.890Z,32.93
2022-08-03T14:59:28.428Z,36.28
2022-08-03T15:04:49.970Z,33.32
2022-08-03T15:09:51.526Z,31.52
2022-08-03T15:14:53.106Z,32.63
2022-08-03T15:20:01.364Z,33.01
2022-08-03T15:26:28.461Z,32.66
2022-08-03T15:30:31.304Z,32.82
2022-08-03T15:35:33.179Z,31.98
2022-08-03T15:40:34.761Z,33.39
2022-08-03T15:45:36.967Z,32.38
2022-08-03T15:50:38.820Z,32.39
2022-08-03T15:55:40.487Z,31.74
2022-08-03T16:00:43.006Z,31.80
2022-08-03T16:05:44.620Z,32.15
2022-08-03T16:10:47.218Z,32.13
2022-08-03T16:15:50.231Z,31.75
2022-08-03T16:20:51.775Z,32.07
2022-08-03T16:25:53.569Z,32.62
2022-08-03T16:30:55.157Z,32.04
2022-08-03T16:35:56.792Z,31.97
2022-08-03T16:40:58.424Z,32.10
2022-08-03T16:46:00.114Z,32.67
2022-08-03T16:51:02.863Z,32.59
2022-08-03T16:56:09.943Z,32.56
2022-08-03T17:01:24.253Z,32.55
2022-08-03T17:06:34.277Z,32.68
2022-08-03T17:11:46.389Z,32.73
2022-08-03T17:16:52.750Z,32.41
2022-08-03T17:22:09.800Z,32.28
2022-08-03T17:28:50.747Z,32.43
2022-08-03T17:32:56.699Z,32.94
2022-08-03T17:38:03.401Z,32.51
2022-08-03T17:44:14.509Z,32.91
2022-08-03T17:48:27.278Z,32.60
2022-08-03T17:53:33.455Z,32.51
2022-08-03T17:58:55.073Z,32.46
2022-08-03T18:03:59.262Z,32.39
2022-08-03T18:09:05.308Z,32.78
2022-08-03T18:14:32.397Z,31.60
2022-08-03T18:20:03.606Z,32.05
2022-08-03T18:24:59.129Z,32.32
2022-08-03T18:30:01.852Z,32.16
2022-08-03T18:35:04.229Z,32.87
2022-08-03T18:40:07.384Z,32.79
2022-08-03T18:45:55.245Z,33.39
2022-08-03T18:50:36.720Z,33.71
2022-08-03T18:56:01.594Z,33.01
2022-08-03T19:01:06.406Z,32.41
2022-08-03T19:06:28.781Z,33.08
2022-08-03T19:12:14.534Z,34.34
2022-08-03T19:17:07.548Z,36.05
2022-08-03T19:22:10.837Z,36.74
2022-08-03T19:27:13.072Z,37.10
2022-08-03T19:32:19.193Z,38.11
2022-08-03T19:37:22.086Z,39.02
2022-08-03T19:42:31.936Z,39.85
2022-08-03T19:47:39.998Z,40.37
2022-08-03T19:52:47.117Z,40.62
2022-08-03T19:57:53.781Z,41.37
2022-08-03T20:02:59.115Z,41.06
2022-08-03T20:08:03.504Z,41.36
2022-08-03T20:13:05.098Z,41.63
2022-08-03T20:18:16.679Z,41.87
2022-08-03T20:23:19.762Z,41.92
2022-08-03T20:28:26.673Z,42.10
2022-08-03T20:33:46.326Z,42.09
2022-08-03T20:38:51.980Z,42.29
2022-08-03T20:43:53.715Z,42.64
2022-08-03T20:48:57.260Z,42.99
2022-08-03T20:54:03.035Z,43.54
2022-08-03T20:59:07.241Z,43.68
2022-08-03T21:04:21.108Z,44.38
2022-08-03T21:09:40.054Z,48.71
2022-08-03T21:15:01.956Z,49.05
2022-08-03T21:20:07.958Z,49.20
2022-08-03T21:25:09.764Z,50.72
2022-08-03T21:30:11.915Z,49.26
2022-08-03T21:35:14.043Z,47.49
2022-08-03T21:40:16.640Z,47.90
2022-08-03T21:45:18.282Z,48.10
2022-08-03T21:50:20.686Z,48.26
2022-08-03T21:55:26.689Z,48.30
2022-08-03T22:00:28.304Z,48.26
2022-08-03T22:05:43.438Z,48.30
2022-08-03T22:10:46.898Z,48.53
2022-08-03T22:15:48.862Z,49.00
2022-08-03T22:20:51.661Z,49.04
2022-08-03T22:25:53.571Z,49.00
2022-08-03T22:30:55.265Z,49.10
2022-08-03T22:35:58.935Z,49.86
2022-08-03T22:41:00.680Z,49.54
2022-08-03T22:46:10.565Z,49.92
2022-08-03T22:51:15.369Z,50.24
2022-08-03T22:56:16.912Z,50.49
2022-08-03T23:01:20.572Z,50.96
2022-08-03T23:06:23.468Z,51.39
2022-08-03T23:11:25.922Z,51.26
2022-08-03T23:16:29.237Z,51.56
2022-08-03T23:21:53.989Z,51.72
2022-08-03T23:26:53.548Z,51.51
2022-08-03T23:31:56.685Z,51.62
2022-08-03T23:37:00.919Z,51.95
2022-08-03T23:42:03.074Z,51.40
2022-08-03T23:47:04.723Z,51.93
2022-08-03T23:52:25.454Z,52.35
2022-08-03T23:57:48.999Z,52.53
